This is the latest recevied weather packets stored in our database for station/object KE2GQQ. If no packets are shown the sender has not sent any weather packets the latest 10 day(s).
| Time | Temp. | Humidity | Pressure | Rain* | Wind** | Luminosity | Snow |
|---|---|---|---|---|---|---|---|
| 1777314936 | 20° C | 43% | 1023.5 hPa | 0 mm | - | 653 W/m² | - |
| 1777307718 | 18.33° C | 46% | 1024.1 hPa | 0 mm | - | 528 W/m² | - |
| 1777301117 | 16.67° C | 55% | 1024.4 hPa | 0 mm | - | 727 W/m² | - |
| 1777298717 | 16.11° C | 59% | 1024.1 hPa | 0 mm | - | 602 W/m² | - |
| 1777295718 | 13.89° C | 65% | 1023.7 hPa | 0 mm | - | 562 W/m² | - |
| 1777293315 | 12.22° C | 73% | 1023.4 hPa | 0 mm | - | 421 W/m² | - |
| 1777288517 | 4.44° C | 98% | 1022.8 hPa | 0 mm | - | 37 W/m² | - |
| 1777286117 | 3.89° C | 98% | 1022.4 hPa | 0 mm | - | 16 W/m² | - |
| 1777283118 | 3.89° C | 98% | 1022.6 hPa | 0 mm | - | 0 W/m² | - |
| 1777281319 | 3.89° C | 98% | 1022.6 hPa | 0 mm | - | 0 W/m² | - |
| 1777275916 | 3.89° C | 97% | 1022.4 hPa | 0 mm | - | 0 W/m² | - |
| 1777274717 | 4.44° C | 97% | 1022.1 hPa | 0 mm | - | 0 W/m² | - |
| 1777274117 | 3.89° C | 97% | 1022.1 hPa | 0 mm | - | 0 W/m² | - |
| 1777268719 | 4.44° C | 95% | 1022.1 hPa | 0 mm | - | 0 W/m² | - |
| 1777265716 | 5° C | 94% | 1022.1 hPa | 0 mm | - | 0 W/m² | - |
| 1777265116 | 5° C | 94% | 1022.1 hPa | 0 mm | - | 0 W/m² | - |
| 1777262118 | 5.56° C | 93% | 1022.1 hPa | 0 mm | - | 0 W/m² | - |
| 1777256118 | 6.67° C | 88% | 1022.2 hPa | 0 mm | - | 0 W/m² | - |
| 1777253716 | 7.78° C | 88% | 1022.1 hPa | 0 mm | - | 0 W/m² | - |
| 1777250716 | 8.33° C | 87% | 1021.5 hPa | 0 mm | - | 0 W/m² | - |
| 1777250117 | 8.33° C | 86% | 1021.4 hPa | 0 mm | - | 0 W/m² | - |
| 1777247117 | 10° C | 80% | 1020.7 hPa | 0 mm | - | 3 W/m² | - |
| 1777246517 | 10.56° C | 78% | 1020.7 hPa | 0 mm | - | 6 W/m² | - |
| 1777245918 | 11.11° C | 76% | 1020.7 hPa | 0 mm | - | 10 W/m² | - |
| 1777242316 | 13.33° C | 67% | 1020.2 hPa | 0 mm | - | 36 W/m² | - |
* Rain latest hour (hover to see other rain measurements)
** Current wind speed in m/s (hover to see current wind gust speed)